Time;durP1;ratioP1;P1;durP2;ratioP2;P2;SDS_P1;SDS_P2;PMS_P1;PMS_P2;Temp;Humidity;BMP_temperature;BMP_pressure;BME280_temperature;BME280_humidity;BME280_pressure;Samples;Min_cycle;Max_cycle;Signal;HPM_P1;HPM_P2
2021/09/10 00:00:08;;;;;;;15.48;7.68;;;;;;;14.77;70.17;100491.00;5113062;28;20071;-73
2021/09/10 00:02:36;;;;;;;14.30;8.23;;;;;;;14.57;70.97;100500.50;5112946;28;20039;-73
2021/09/10 00:05:06;;;;;;;16.40;7.95;;;;;;;14.54;71.13;100502.53;5113116;28;20044;-73
2021/09/10 00:07:36;;;;;;;16.85;8.70;;;;;;;14.76;70.32;100491.94;5112915;28;20047;-73
2021/09/10 00:10:08;;;;;;;18.05;9.45;;;;;;;14.79;70.18;100493.56;5112971;28;20084;-73
2021/09/10 00:12:37;;;;;;;16.03;9.80;;;;;;;14.75;70.18;100498.28;5112698;28;20490;-71
2021/09/10 00:15:07;;;;;;;20.20;9.25;;;;;;;14.67;70.89;100505.19;5113226;28;20402;-70
2021/09/10 00:17:35;;;;;;;15.23;8.18;;;;;;;14.58;71.42;100501.38;5094665;28;20055;-71
2021/09/10 00:20:04;;;;;;;13.93;8.48;;;;;;;14.81;70.72;100489.78;5112869;28;20039;-71
2021/09/10 00:22:33;;;;;;;20.70;11.00;;;;;;;14.62;71.26;100491.25;5112529;28;20067;-70
2021/09/10 00:25:01;;;;;;;20.88;11.50;;;;;;;14.58;71.22;100483.44;5111400;28;20070;-70
2021/09/10 00:27:31;;;;;;;19.85;11.48;;;;;;;14.67;70.95;100486.38;5112636;28;20059;-70
2021/09/10 00:30:01;;;;;;;24.77;12.20;;;;;;;14.49;71.69;100492.16;5113187;28;20409;-70
2021/09/10 00:32:31;;;;;;;18.13;12.02;;;;;;;14.35;72.10;100499.44;5112729;28;20524;-71
2021/09/10 00:35:11;;;;;;;21.65;11.05;;;;;;;14.24;72.55;100495.72;5112850;28;20119;-71
2021/09/10 00:37:42;;;;;;;22.20;10.48;;;;;;;14.24;73.17;100500.22;5113011;28;20478;-71
2021/09/10 00:40:16;;;;;;;17.80;9.68;;;;;;;14.25;72.92;100494.72;5113787;28;20043;-71
2021/09/10 00:42:49;;;;;;;17.48;7.95;;;;;;;14.36;72.56;100498.47;5117055;28;20418;-71
2021/09/10 00:45:17;;;;;;;17.55;8.27;;;;;;;14.33;72.53;100489.69;5116549;28;20072;-71
2021/09/10 00:47:46;;;;;;;13.20;7.97;;;;;;;14.19;73.26;100491.66;5116482;28;20396;-71
2021/09/10 00:50:14;;;;;;;12.95;7.28;;;;;;;14.29;72.49;100488.19;5116629;28;20462;-72
2021/09/10 00:52:42;;;;;;;13.77;8.00;;;;;;;13.98;74.14;100494.00;5116712;28;20436;-74
2021/09/10 00:55:11;;;;;;;13.85;7.35;;;;;;;13.82;74.94;100498.75;5116354;28;20558;-74
2021/09/10 00:57:39;;;;;;;17.73;7.72;;;;;;;13.65;76.03;100514.16;5115931;28;20055;-74
2021/09/10 01:00:10;;;;;;;16.25;7.55;;;;;;;13.64;75.91;100501.72;5116199;28;20101;-74
2021/09/10 01:02:39;;;;;;;10.38;6.30;;;;;;;13.88;74.87;100499.16;5116288;28;20542;-74
2021/09/10 01:05:08;;;;;;;10.98;6.93;;;;;;;13.93;74.80;100507.75;5116481;28;20082;-73
2021/09/10 01:07:37;;;;;;;13.68;6.13;;;;;;;14.00;73.95;100503.69;5116343;28;20098;-73
2021/09/10 01:10:06;;;;;;;11.68;6.90;;;;;;;13.99;74.15;100493.94;5116507;28;20051;-73
2021/09/10 01:12:34;;;;;;;12.65;7.00;;;;;;;13.99;74.35;100501.09;5116406;28;20047;-73
2021/09/10 01:15:05;;;;;;;10.90;6.90;;;;;;;13.82;74.72;100496.06;5116047;28;20397;-74
2021/09/10 01:17:36;;;;;;;13.73;6.90;;;;;;;13.82;75.26;100496.06;5115864;28;20051;-73
2021/09/10 01:20:06;;;;;;;12.98;7.00;;;;;;;13.87;75.13;100496.59;5116312;28;20043;-73
2021/09/10 01:22:37;;;;;;;13.65;7.00;;;;;;;13.78;75.64;100494.53;5116115;28;20126;-73
2021/09/10 01:25:12;;;;;;;10.95;6.53;;;;;;;13.59;76.15;100498.50;5116370;28;20093;-73
2021/09/10 01:27:44;;;;;;;15.52;6.88;;;;;;;13.51;76.63;100500.88;5115744;28;20047;-74
2021/09/10 01:30:14;;;;;;;12.05;6.80;;;;;;;13.42;77.56;100502.34;5116121;28;20040;-73
2021/09/10 01:32:46;;;;;;;11.40;7.10;;;;;;;13.67;76.54;100496.16;5116021;28;20130;-75
2021/09/10 01:35:14;;;;;;;15.18;6.82;;;;;;;13.71;75.80;100494.13;5115768;28;20371;-74
2021/09/10 01:37:42;;;;;;;11.57;6.47;;;;;;;13.50;76.66;100496.44;5115322;28;20112;-75
2021/09/10 01:40:13;;;;;;;14.30;6.93;;;;;;;13.70;76.10;100490.59;5115726;28;20389;-75
2021/09/10 01:42:42;;;;;;;13.20;6.00;;;;;;;13.60;76.21;100500.22;5115332;28;20154;-75
2021/09/10 01:45:15;;;;;;;10.57;6.45;;;;;;;13.70;75.60;100497.75;5115477;28;20040;-75
2021/09/10 01:47:44;;;;;;;;;;;;;;;13.48;76.54;100505.56;5115563;28;20489;-75
2021/09/10 01:50:14;;;;;;;9.75;6.20;;;;;;;13.40;77.14;100504.25;5115283;28;19919;-76
2021/09/10 01:52:44;;;;;;;10.48;6.43;;;;;;;13.31;77.57;100504.88;5114619;28;20564;-75
2021/09/10 01:55:15;;;;;;;11.70;7.10;;;;;;;13.21;78.27;100509.13;5097364;28;20505;-75
2021/09/10 01:57:46;;;;;;;13.98;6.90;;;;;;;13.25;78.28;100502.63;5115143;28;20375;-75
2021/09/10 02:00:16;;;;;;;11.55;6.47;;;;;;;13.14;78.90;100502.47;5115347;28;20048;-72
2021/09/10 02:02:47;;;;;;;12.80;7.15;;;;;;;13.05;79.62;100497.72;5114716;28;20089;-73
2021/09/10 02:05:16;;;;;;;12.50;6.82;;;;;;;13.16;79.20;100497.84;5115356;28;20035;-72
2021/09/10 02:07:44;;;;;;;12.60;7.05;;;;;;;13.24;78.68;100500.06;5114719;28;20044;-72
2021/09/10 02:10:18;;;;;;;14.00;7.05;;;;;;;13.27;78.51;100495.34;5114972;28;20043;-72
2021/09/10 02:12:49;;;;;;;15.57;7.07;;;;;;;13.45;77.41;100502.13;5114974;28;20477;-72
2021/09/10 02:15:17;;;;;;;10.95;6.60;;;;;;;13.54;77.26;100499.78;5114747;28;20046;-72
2021/09/10 02:17:45;;;;;;;11.02;6.85;;;;;;;13.42;77.55;100501.50;5114638;28;20043;-71
2021/09/10 02:20:13;;;;;;;14.57;7.40;;;;;;;13.24;78.52;100487.53;5114771;28;20040;-72
2021/09/10 02:22:46;;;;;;;14.02;7.25;;;;;;;13.40;77.84;100498.03;5114675;28;20096;-72
2021/09/10 02:25:16;;;;;;;10.77;6.70;;;;;;;13.14;79.06;100492.59;5096527;28;20391;-72
2021/09/10 02:27:44;;;;;;;10.20;6.78;;;;;;;13.17;79.27;100491.53;5096140;28;20138;-72
2021/09/10 02:30:13;;;;;;;13.95;6.78;;;;;;;13.22;79.13;100488.56;5114438;28;20126;-72
2021/09/10 02:32:43;;;;;;;10.70;7.18;;;;;;;13.09;79.49;100494.72;5114310;28;20036;-73
2021/09/10 02:35:11;;;;;;;12.60;7.13;;;;;;;13.11;79.83;100495.47;5114538;28;20042;-73
2021/09/10 02:37:39;;;;;;;10.13;6.32;;;;;;;12.99;80.26;100490.06;5114092;28;20039;-75
2021/09/10 02:40:11;;;;;;;12.27;6.93;;;;;;;13.01;80.18;100491.69;5114779;28;20073;-75
2021/09/10 02:42:43;;;;;;;11.98;6.60;;;;;;;13.00;80.34;100502.50;5114136;28;20047;-74
2021/09/10 02:45:14;;;;;;;10.80;6.10;;;;;;;13.04;79.83;100494.19;5114358;28;20040;-75
2021/09/10 02:47:42;;;;;;;12.77;6.35;;;;;;;13.15;79.16;100497.00;5114000;28;20112;-75
2021/09/10 02:50:11;;;;;;;11.48;6.63;;;;;;;13.05;78.76;100498.56;5114110;28;20043;-75
2021/09/10 02:52:42;;;;;;;15.05;7.10;;;;;;;13.13;78.37;100498.06;5113656;28;20175;-76
2021/09/10 02:55:12;;;;;;;9.55;6.32;;;;;;;13.01;79.11;100491.69;5095664;28;20043;-75
2021/09/10 02:57:44;;;;;;;11.05;6.72;;;;;;;12.87;79.60;100495.28;5113846;28;20044;-76
2021/09/10 03:00:13;;;;;;;12.30;6.70;;;;;;;12.87;79.68;100489.06;5114016;28;20040;-76
2021/09/10 03:02:42;;;;;;;16.98;6.97;;;;;;;12.90;79.69;100491.53;5113506;28;20046;-76
2021/09/10 03:05:11;;;;;;;13.00;6.75;;;;;;;12.83;80.13;100490.22;5113933;28;20435;-76
2021/09/10 03:07:40;;;;;;;12.90;7.18;;;;;;;12.72;80.70;100495.44;5113853;28;20093;-76
2021/09/10 03:10:10;;;;;;;12.38;7.00;;;;;;;12.71;80.72;100485.69;5113956;28;20071;-75
2021/09/10 03:12:39;;;;;;;12.20;7.03;;;;;;;12.71;80.83;100489.22;5113746;28;20443;-75
2021/09/10 03:15:11;;;;;;;14.65;7.30;;;;;;;12.63;81.85;100486.16;5113733;28;20447;-75
2021/09/10 03:17:43;;;;;;;16.58;6.97;;;;;;;12.52;82.42;100480.66;5113330;28;20065;-76
2021/09/10 03:20:13;;;;;;;11.93;7.10;;;;;;;12.64;81.58;100492.38;5095821;28;20048;-75
2021/09/10 03:22:42;;;;;;;12.50;7.05;;;;;;;12.50;82.59;100491.47;5113105;28;20035;-74
2021/09/10 03:25:11;;;;;;;12.70;7.22;;;;;;;12.46;82.85;100489.09;5113507;28;20054;-76
2021/09/10 03:27:40;;;;;;;12.32;6.70;;;;;;;12.35;83.37;100487.09;5113294;28;20040;-75
2021/09/10 03:30:11;;;;;;;12.38;7.40;;;;;;;12.45;83.05;100482.91;5113476;28;20441;-75
2021/09/10 03:32:40;;;;;;;14.15;7.03;;;;;;;12.49;82.73;100481.72;5113037;28;20050;-74
2021/09/10 03:35:09;;;;;;;12.57;7.00;;;;;;;12.45;82.88;100482.91;5113462;28;20058;-75
2021/09/10 03:37:40;;;;;;;11.32;6.72;;;;;;;12.32;83.65;100484.63;5113344;28;20040;-75
2021/09/10 03:40:10;;;;;;;11.75;7.10;;;;;;;12.46;82.91;100481.94;5113422;28;20047;-74
2021/09/10 03:42:38;;;;;;;11.80;6.88;;;;;;;12.28;83.24;100485.78;5113405;28;20051;-75
2021/09/10 03:45:10;;;;;;;10.48;6.65;;;;;;;12.30;83.45;100483.88;5113230;28;20111;-74
2021/09/10 03:47:39;;;;;;;10.93;6.75;;;;;;;12.26;83.43;100485.03;5113030;28;20051;-75
2021/09/10 03:50:08;;;;;;;11.02;6.35;;;;;;;12.45;82.71;100490.91;5113184;28;20039;-75
2021/09/10 03:52:38;;;;;;;13.63;6.45;;;;;;;12.29;83.22;100487.50;5112899;28;20480;-75
2021/09/10 03:55:08;;;;;;;13.38;7.25;;;;;;;12.27;83.45;100489.41;5113059;28;20051;-72
2021/09/10 03:57:38;;;;;;;13.60;7.25;;;;;;;12.17;83.80;100482.94;5112873;28;20040;-73
2021/09/10 04:00:08;;;;;;;11.95;6.72;;;;;;;12.21;83.70;100497.81;5113331;28;20062;-75
2021/09/10 04:02:38;;;;;;;13.73;6.88;;;;;;;12.08;85.46;100499.56;5113269;28;20525;-75
2021/09/10 04:05:07;;;;;;;14.13;7.00;;;;;;;11.96;85.94;100491.31;5113296;28;20044;-74
2021/09/10 04:07:39;;;;;;;15.52;7.78;;;;;;;12.05;86.24;100495.22;5112819;28;20055;-74
2021/09/10 04:10:08;;;;;;;12.63;7.28;;;;;;;11.94;86.99;100487.88;5113389;28;20039;-73
2021/09/10 04:12:36;;;;;;;13.52;7.25;;;;;;;12.02;86.57;100498.09;5113047;28;20035;-74
2021/09/10 04:15:06;;;;;;;12.38;7.13;;;;;;;12.12;86.23;100495.72;5113997;28;20466;-74
2021/09/10 04:17:34;;;;;;;12.57;7.78;;;;;;;12.00;86.80;100495.53;5116974;28;20040;-75
2021/09/10 04:20:04;;;;;;;14.45;7.38;;;;;;;12.09;86.61;100493.25;5098704;28;20097;-75
2021/09/10 04:22:33;;;;;;;11.13;7.00;;;;;;;11.99;87.07;100492.97;5116445;28;20065;-73
2021/09/10 04:25:01;;;;;;;10.70;7.10;;;;;;;12.09;86.84;100495.91;5116745;28;20054;-72
2021/09/10 04:27:30;;;;;;;13.80;7.53;;;;;;;12.06;86.88;100491.59;5116804;28;20054;-78
2021/09/10 04:29:58;;;;;;;11.30;6.53;;;;;;;12.15;86.78;100492.84;5118909;28;20065;-71
2021/09/10 04:32:26;;;;;;;13.93;6.57;;;;;;;12.06;87.00;100496.94;5116729;28;20043;-73
2021/09/10 04:34:55;;;;;;;15.07;7.13;;;;;;;11.92;87.83;100495.13;5116506;28;20039;-73
2021/09/10 04:37:24;;;;;;;15.80;7.47;;;;;;;11.93;88.31;100487.97;5116851;28;20039;-72
2021/09/10 04:39:52;;;;;;;11.43;6.90;;;;;;;11.95;88.33;100489.59;5115165;28;20138;-73
2021/09/10 04:42:24;;;;;;;14.85;6.82;;;;;;;12.11;87.17;100502.88;5116784;28;20074;-72
2021/09/10 04:44:54;;;;;;;13.13;6.72;;;;;;;12.19;86.42;100489.91;5116271;28;20088;-72
2021/09/10 04:47:25;;;;;;;11.65;6.55;;;;;;;12.18;86.56;100496.19;5116376;28;20044;-75
2021/09/10 04:49:53;;;;;;;15.95;7.32;;;;;;;12.22;86.23;100499.53;5116303;28;20132;-73
2021/09/10 04:52:21;;;;;;;11.93;7.15;;;;;;;12.38;85.52;100492.25;5116863;28;20039;-73
2021/09/10 04:54:51;;;;;;;14.23;6.82;;;;;;;12.45;84.76;100498.06;5116132;28;20044;-75
2021/09/10 04:57:21;;;;;;;14.95;7.20;;;;;;;12.46;84.87;100505.16;5116650;28;20481;-78
2021/09/10 04:59:51;;;;;;;13.73;7.13;;;;;;;12.71;83.29;100504.41;5116083;28;20466;-73
2021/09/10 05:02:21;;;;;;;14.77;7.78;;;;;;;12.54;83.91;100513.53;5115946;28;20140;-72
2021/09/10 05:04:49;;;;;;;15.18;7.18;;;;;;;12.65;83.84;100513.72;5115591;28;20050;-72
2021/09/10 05:07:17;;;;;;;12.20;6.55;;;;;;;12.80;83.33;100525.22;5115864;28;20131;-70
2021/09/10 05:09:45;;;;;;;18.95;7.85;;;;;;;12.90;82.53;100523.66;5115962;28;20050;-71
2021/09/10 05:12:16;;;;;;;12.90;7.03;;;;;;;12.84;82.88;100527.63;5115976;28;20100;-71
2021/09/10 05:14:51;;;;;;;11.35;6.78;;;;;;;13.02;81.99;100519.31;5115695;28;20036;-72
2021/09/10 05:17:20;;;;;;;18.20;7.30;;;;;;;13.07;81.80;100525.25;5116208;28;20046;-72
2021/09/10 05:19:49;;;;;;;12.38;6.85;;;;;;;13.29;80.50;100522.03;5115801;28;20040;-71
2021/09/10 05:22:17;;;;;;;15.95;7.07;;;;;;;13.28;79.98;100523.84;5115927;28;20050;-71
2021/09/10 05:24:45;;;;;;;14.20;6.90;;;;;;;13.44;78.88;100526.38;5115645;28;20119;-72
2021/09/10 05:27:19;;;;;;;13.85;7.40;;;;;;;13.78;76.54;100530.25;5114256;28;20039;-72
2021/09/10 05:29:50;;;;;;;13.30;6.72;;;;;;;13.88;75.16;100519.75;5115651;28;20035;-71
2021/09/10 05:32:19;;;;;;;14.95;7.97;;;;;;;13.93;75.62;100523.00;5115688;28;20043;-72
2021/09/10 05:34:51;;;;;;;17.02;7.10;;;;;;;14.08;74.51;100513.00;5115181;28;20397;-71
2021/09/10 05:37:23;;;;;;;13.90;6.65;;;;;;;14.23;73.67;100509.22;5115400;28;20040;-72
2021/09/10 05:39:51;;;;;;;10.95;6.55;;;;;;;14.28;73.17;100518.69;5115469;28;20390;-72
2021/09/10 05:42:23;;;;;;;12.20;7.18;;;;;;;14.53;72.09;100514.25;5115235;28;20130;-72
2021/09/10 05:44:52;;;;;;;17.87;7.00;;;;;;;14.60;71.76;100520.91;5115194;28;20127;-72
2021/09/10 05:47:23;;;;;;;12.63;7.22;;;;;;;14.74;71.14;100519.88;5115307;28;20290;-71
2021/09/10 05:49:51;;;;;;;12.63;6.80;;;;;;;14.59;71.42;100521.88;5096544;28;20051;-72
2021/09/10 05:52:19;;;;;;;13.55;7.22;;;;;;;14.63;70.98;100536.78;5115361;28;20448;-72
2021/09/10 05:54:47;;;;;;;15.85;6.63;;;;;;;14.64;70.69;100532.25;5115227;28;20035;-72
2021/09/10 05:57:15;;;;;;;16.30;6.95;;;;;;;14.68;70.85;100525.72;5115002;28;20039;-71
2021/09/10 05:59:47;;;;;;;15.05;7.18;;;;;;;14.96;70.21;100536.16;5114957;28;20046;-73
2021/09/10 06:02:15;;;;;;;12.73;7.07;;;;;;;15.32;68.32;100537.03;5096458;28;20047;-71
2021/09/10 06:04:47;;;;;;;16.40;7.35;;;;;;;15.28;67.24;100535.56;5114194;28;20442;-75
2021/09/10 06:07:18;;;;;;;17.08;6.47;;;;;;;15.32;68.21;100537.03;5114330;28;20051;-75
2021/09/10 06:09:46;;;;;;;12.93;7.03;;;;;;;15.49;67.12;100533.09;5112253;28;20032;-72
2021/09/10 06:12:14;;;;;;;12.65;7.28;;;;;;;15.49;67.41;100528.56;5095818;28;20525;-71
2021/09/10 06:14:42;;;;;;;15.80;7.35;;;;;;;15.69;66.19;100536.00;5111002;28;20462;-71
2021/09/10 06:17:12;;;;;;;18.40;7.15;;;;;;;15.69;66.00;100537.81;5114126;28;20130;-73
2021/09/10 06:19:43;;;;;;;17.10;7.63;;;;;;;15.77;65.77;100534.56;5113780;28;20089;-74
2021/09/10 06:22:13;;;;;;;18.40;6.90;;;;;;;16.00;64.90;100531.78;5113723;28;20043;-73
2021/09/10 06:24:43;;;;;;;13.38;6.55;;;;;;;16.02;64.13;100537.91;5110872;28;20332;-75
2021/09/10 06:27:14;;;;;;;14.20;6.38;;;;;;;16.20;63.40;100540.09;5095301;28;20047;-75
2021/09/10 06:29:42;;;;;;;12.05;6.18;;;;;;;16.38;61.67;100538.66;5110955;28;20401;-72
2021/09/10 06:32:12;;;;;;;12.27;6.40;;;;;;;16.11;62.60;100535.44;5113771;28;20350;-72
2021/09/10 06:34:42;;;;;;;15.75;6.55;;;;;;;16.33;61.67;100535.50;5113528;28;20043;-74
2021/09/10 06:37:12;;;;;;;13.93;6.30;;;;;;;16.78;59.71;100535.47;5113690;28;20039;-74
2021/09/10 06:39:43;;;;;;;10.85;6.50;;;;;;;17.38;58.39;100542.19;5110699;28;20031;-75
2021/09/10 06:42:11;;;;;;;10.48;5.32;;;;;;;17.75;56.71;100539.91;5113651;28;20043;-74
2021/09/10 06:44:39;;;;;;;11.88;5.57;;;;;;;17.73;56.80;100545.44;5113850;28;20429;-74
2021/09/10 06:47:08;;;;;;;10.38;5.80;;;;;;;18.48;54.65;100540.78;5113684;28;20039;-74
2021/09/10 06:49:41;;;;;;;12.60;6.77;;;;;;;18.45;53.68;100541.06;5113703;28;20040;-74
2021/09/10 06:52:10;;;;;;;11.10;6.30;;;;;;;18.74;51.72;100536.63;5114038;28;20044;-72
2021/09/10 06:54:38;;;;;;;9.15;5.72;;;;;;;18.38;53.69;100534.47;5112965;28;20123;-70
2021/09/10 06:57:06;;;;;;;12.93;6.07;;;;;;;17.89;55.23;100536.91;5104132;28;20461;-73
2021/09/10 06:59:34;;;;;;;12.93;6.15;;;;;;;17.77;55.48;100551.47;5110777;28;20096;-70
2021/09/10 07:02:03;;;;;;;13.63;6.60;;;;;;;17.50;56.89;100543.84;5113469;28;20044;-74
2021/09/10 07:04:31;;;;;;;10.27;6.22;;;;;;;17.57;56.77;100544.19;5113492;28;20481;-74
2021/09/10 07:07:01;;;;;;;13.85;6.55;;;;;;;17.81;56.07;100546.66;5112944;28;20089;-74
2021/09/10 07:09:29;;;;;;;14.73;6.07;;;;;;;17.97;56.00;100549.75;5113230;28;20482;-74
2021/09/10 07:11:57;;;;;;;13.75;6.05;;;;;;;17.94;55.43;100541.91;5110903;28;20040;-74
2021/09/10 07:14:25;;;;;;;13.30;6.20;;;;;;;17.94;55.46;100550.00;5113262;28;20490;-74
2021/09/10 07:16:53;;;;;;;11.18;5.95;;;;;;;17.96;55.75;100539.94;5112992;28;20482;-73
2021/09/10 07:19:21;;;;;;;10.05;6.05;;;;;;;18.07;54.99;100539.88;5113045;28;20153;-73
2021/09/10 07:21:49;;;;;;;10.60;5.88;;;;;;;18.08;54.33;100538.88;5113276;28;20047;-74
2021/09/10 07:24:19;;;;;;;10.60;6.03;;;;;;;18.15;54.75;100544.59;5113315;28;20109;-69
2021/09/10 07:26:51;;;;;;;12.52;6.63;;;;;;;18.15;54.47;100542.75;5113071;28;20066;-69
2021/09/10 07:29:22;;;;;;;12.13;6.35;;;;;;;18.19;54.41;100546.03;5115279;28;20573;-68
2021/09/10 07:31:51;;;;;;;10.93;6.05;;;;;;;18.18;53.55;100547.88;5107498;28;20054;-69
2021/09/10 07:34:19;;;;;;;13.57;6.85;;;;;;;18.31;52.48;100545.81;5113127;28;20040;-69
2021/09/10 07:36:52;;;;;;;13.93;6.15;;;;;;;18.26;53.17;100556.16;5113245;28;20039;-69
2021/09/10 07:39:22;;;;;;;11.85;6.57;;;;;;;18.31;54.14;100559.31;5095591;28;20044;-69
2021/09/10 07:41:50;;;;;;;14.68;6.28;;;;;;;18.54;53.41;100556.44;5092877;28;20043;-69
2021/09/10 07:44:18;;;;;;;13.43;6.60;;;;;;;18.53;52.91;100552.03;5093148;28;20048;-69
2021/09/10 07:46:51;;;;;;;13.82;6.75;;;;;;;18.74;52.89;100552.00;5102846;28;20039;-70
2021/09/10 07:49:22;;;;;;;12.32;6.93;;;;;;;18.90;51.59;100546.03;5112187;28;20035;-71
2021/09/10 07:51:53;;;;;;;18.80;6.75;;;;;;;18.87;51.92;100548.03;5093898;28;20051;-70
2021/09/10 07:54:25;;;;;;;14.95;7.60;;;;;;;18.91;51.01;100547.75;5113221;28;20043;-69
2021/09/10 07:57:03;;;;;;;11.30;6.55;;;;;;;18.87;51.72;100549.88;5112912;28;20097;-69
2021/09/10 07:59:31;;;;;;;17.33;7.10;;;;;;;18.97;51.54;100555.31;5110373;28;20118;-68
2021/09/10 08:02:00;;;;;;;15.45;8.35;;;;;;;18.99;51.33;100550.63;5112805;28;20047;-69
2021/09/10 08:04:28;;;;;;;15.88;8.70;;;;;;;19.09;50.98;100546.94;5113197;28;20039;-68
2021/09/10 08:06:57;;;;;;;16.50;9.52;;;;;;;19.17;51.02;100540.84;5112845;28;20401;-68
2021/09/10 08:09:26;;;;;;;17.85;10.05;;;;;;;19.36;50.83;100548.97;5113033;28;20051;-69
2021/09/10 08:11:54;;;;;;;15.43;7.22;;;;;;;19.40;49.45;100545.00;5112891;28;20042;-69
2021/09/10 08:14:22;;;;;;;14.00;6.78;;;;;;;19.60;49.08;100542.34;5094346;28;20044;-69
2021/09/10 08:16:53;;;;;;;15.52;6.85;;;;;;;19.90;48.74;100546.72;5112453;28;20043;-69
2021/09/10 08:19:21;;;;;;;14.55;6.38;;;;;;;19.97;48.13;100547.81;5113346;28;20047;-68
2021/09/10 08:21:52;;;;;;;14.65;6.07;;;;;;;20.00;47.93;100547.53;5113069;28;20047;-71
2021/09/10 08:24:24;;;;;;;13.30;6.35;;;;;;;20.15;47.28;100531.66;5112664;28;20063;-70
2021/09/10 08:26:53;;;;;;;12.02;5.90;;;;;;;20.15;47.44;100539.78;5112604;28;20114;-68
2021/09/10 08:29:25;;;;;;;13.10;6.18;;;;;;;20.19;47.95;100533.09;5113354;28;20089;-67
2021/09/10 08:31:53;;;;;;;12.20;5.13;;;;;;;20.47;46.51;100536.75;5112739;28;20509;-66
2021/09/10 08:34:24;;;;;;;9.75;4.88;;;;;;;20.41;46.50;100535.44;5112999;28;20043;-67
2021/09/10 08:36:53;;;;;;;13.57;5.82;;;;;;;20.39;47.15;100533.88;5112871;28;20558;-69
2021/09/10 08:39:21;;;;;;;12.30;5.10;;;;;;;20.43;46.01;100538.88;5112949;28;20484;-68
2021/09/10 08:41:49;;;;;;;10.45;5.43;;;;;;;20.57;46.31;100543.81;5113093;28;20074;-68
2021/09/10 08:44:21;;;;;;;11.27;4.80;;;;;;;20.61;45.50;100540.81;5112782;28;20039;-70
2021/09/10 08:46:50;;;;;;;7.32;4.50;;;;;;;20.57;46.30;100532.97;5113012;28;20031;-73
2021/09/10 08:49:20;;;;;;;9.55;4.90;;;;;;;20.80;45.74;100536.13;5112718;28;20082;-71
2021/09/10 08:51:48;;;;;;;15.52;5.95;;;;;;;21.01;45.03;100533.16;5112481;28;20397;-71
2021/09/10 08:54:18;;;;;;;13.60;4.97;;;;;;;20.96;44.63;100529.22;5112124;28;20097;-70
2021/09/10 08:56:46;;;;;;;11.95;5.20;;;;;;;20.87;46.33;100528.25;5112901;28;20055;-72
2021/09/10 08:59:19;;;;;;;10.57;5.13;;;;;;;20.91;46.38;100528.78;5112759;28;20044;-71
2021/09/10 09:01:48;;;;;;;;;;;;;;;20.92;46.25;100525.94;5114951;28;20425;-72
2021/09/10 09:04:17;;;;;;;13.40;5.40;;;;;;;20.99;45.90;100524.31;5116547;28;20010;-72
2021/09/10 09:06:50;;;;;;;11.38;5.20;;;;;;;21.07;45.15;100527.13;5116501;28;20051;-69
2021/09/10 09:09:34;;;;;;;12.90;5.40;;;;;;;21.14;45.04;100528.22;5116434;28;20093;-70
2021/09/10 09:12:21;;;;;;;11.07;5.75;;;;;;;21.02;45.53;100518.59;5116029;28;20494;-72
2021/09/10 09:14:54;;;;;;;11.25;4.57;;;;;;;21.15;44.82;100515.53;5115452;28;20482;-71
2021/09/10 09:17:25;;;;;;;8.60;5.13;;;;;;;21.29;44.33;100515.00;5116333;28;20044;-70
2021/09/10 09:20:12;;;;;;;;;;;;;;;21.36;43.93;100510.66;5116645;28;20052;-69
2021/09/10 09:22:59;;;;;;;10.35;4.55;;;;;;;21.48;43.57;100508.56;5116481;28;19942;-69
2021/09/10 09:25:33;;;;;;;12.60;5.07;;;;;;;21.53;43.77;100508.09;5116025;28;20050;-69
2021/09/10 09:28:22;;;;;;;8.52;4.15;;;;;;;21.62;43.32;100505.31;5116024;28;20040;-69
2021/09/10 09:30:54;;;;;;;12.45;4.55;;;;;;;22.03;42.16;100507.47;5115817;28;20061;-69
2021/09/10 09:33:24;;;;;;;9.93;4.20;;;;;;;22.05;42.05;100495.41;5116196;28;20393;-69
2021/09/10 09:35:57;;;;;;;6.55;3.80;;;;;;;22.05;41.03;100498.13;5115514;28;20040;-71
2021/09/10 09:38:29;;;;;;;12.15;4.03;;;;;;;21.89;41.08;100504.28;5115966;28;20092;-69
2021/09/10 09:40:59;;;;;;;6.95;4.13;;;;;;;22.04;41.43;100499.16;5097355;28;20097;-69
2021/09/10 09:43:29;;;;;;;8.85;4.00;;;;;;;22.09;41.17;100499.53;5095109;28;20044;-71
2021/09/10 09:46:01;;;;;;;11.35;4.30;;;;;;;22.19;41.29;100492.13;5095256;28;20532;-70
2021/09/10 09:48:30;;;;;;;13.75;4.10;;;;;;;22.14;41.40;100494.47;5095439;28;20044;-71
2021/09/10 09:50:59;;;;;;;9.23;3.60;;;;;;;22.37;40.83;100483.03;5095186;28;20068;-72
2021/09/10 09:53:27;;;;;;;8.57;4.10;;;;;;;22.32;40.67;100488.13;5095145;28;20068;-71
2021/09/10 09:55:59;;;;;;;8.80;4.10;;;;;;;22.45;39.62;100485.81;5094600;28;20051;-71
2021/09/10 09:58:29;;;;;;;7.95;3.83;;;;;;;22.48;39.16;100471.88;5095244;28;20044;-70
2021/09/10 10:01:00;;;;;;;12.40;3.90;;;;;;;22.51;39.50;100479.72;5101770;28;20040;-71
2021/09/10 10:03:28;;;;;;;9.35;3.55;;;;;;;22.70;38.39;100474.00;5112837;28;20036;-71
2021/09/10 10:06:09;;;;;;;7.90;3.17;;;;;;;22.73;38.19;100468.22;5112237;28;20047;-71
2021/09/10 10:08:45;;;;;;;7.03;3.75;;;;;;;22.79;37.34;100472.19;5112167;28;20044;-71
2021/09/10 10:11:19;;;;;;;7.75;3.25;;;;;;;22.91;36.96;100464.59;5114698;28;20040;-69
2021/09/10 10:13:48;;;;;;;12.95;3.75;;;;;;;22.79;37.70;100462.16;5113969;28;20040;-70
2021/09/10 10:16:40;;;;;;;7.90;3.47;;;;;;;23.03;36.74;100463.22;5112190;28;20043;-70
2021/09/10 10:19:42;;;;;;;7.80;3.53;;;;;;;23.16;36.29;100463.59;5114309;28;20506;-71
2021/09/10 10:22:13;;;;;;;6.82;4.03;;;;;;;23.11;36.16;100455.09;5114051;28;20039;-71
2021/09/10 10:24:44;;;;;;;9.80;3.05;;;;;;;23.03;36.33;100453.19;5114501;28;20047;-71
2021/09/10 10:27:34;;;;;;;8.23;3.22;;;;;;;23.00;36.62;100452.69;5114231;28;20044;-70
2021/09/10 10:30:05;;;;;;;8.07;3.75;;;;;;;23.03;36.88;100452.34;5113056;28;20453;-70
2021/09/10 10:32:37;;;;;;;6.07;2.97;;;;;;;23.20;36.48;100448.63;5114120;28;20050;-70
2021/09/10 10:35:30;;;;;;;7.47;3.22;;;;;;;23.14;36.55;100452.88;5114526;28;20076;-70
2021/09/10 10:38:06;;;;;;;8.13;3.88;;;;;;;23.30;35.86;100443.88;5096652;28;20112;-72
2021/09/10 10:40:37;;;;;;;9.00;3.58;;;;;;;23.39;35.99;100448.31;5114547;28;20056;-70
2021/09/10 10:43:10;;;;;;;8.98;2.97;;;;;;;23.40;35.96;100444.56;5111978;28;20035;-71
2021/09/10 10:46:01;;;;;;;8.13;3.42;;;;;;;23.23;35.80;100442.84;5113632;28;20092;-70
2021/09/10 10:48:50;;;;;;;7.60;3.10;;;;;;;23.52;35.79;100441.47;5114382;28;20086;-70
2021/09/10 10:51:39;;;;;;;9.75;3.38;;;;;;;23.48;35.67;100448.31;5114503;28;20050;-70
2021/09/10 10:54:12;;;;;;;9.98;3.30;;;;;;;23.46;35.43;100444.91;5114314;28;20035;-72
2021/09/10 10:56:50;;;;;;;8.00;3.22;;;;;;;23.39;35.71;100442.84;5114216;28;20047;-71
2021/09/10 10:59:35;;;;;;;5.88;3.05;;;;;;;23.62;35.24;100431.28;5114115;28;20061;-72
2021/09/10 11:02:35;;;;;;;6.93;3.42;;;;;;;23.45;35.98;100435.00;5114154;28;20405;-71
2021/09/10 11:05:13;;;;;;;6.70;3.60;;;;;;;23.60;35.80;100428.75;5114047;28;20044;-72
2021/09/10 11:07:44;;;;;;;7.10;3.60;;;;;;;23.81;35.59;100435.53;5114111;28;20402;-72
2021/09/10 11:10:15;;;;;;;7.50;3.47;;;;;;;23.76;35.80;100422.44;5113691;28;20050;-72
2021/09/10 11:12:45;;;;;;;7.65;3.47;;;;;;;23.73;35.76;100417.31;5113808;28;20057;-72
2021/09/10 11:15:20;;;;;;;7.15;3.50;;;;;;;23.91;35.44;100415.22;5113580;28;20470;-73
2021/09/10 11:17:54;;;;;;;10.82;3.33;;;;;;;23.87;34.96;100413.91;5113914;28;20035;-71
2021/09/10 11:20:30;;;;;;;7.18;3.53;;;;;;;23.93;35.59;100412.31;5095944;28;20086;-70
2021/09/10 11:23:01;;;;;;;9.57;3.33;;;;;;;24.15;35.13;100408.03;5095376;28;20052;-71
2021/09/10 11:25:29;;;;;;;8.57;3.47;;;;;;;24.14;35.19;100403.59;5113371;28;20051;-71
2021/09/10 11:27:58;;;;;;;9.18;3.83;;;;;;;24.02;35.57;100404.97;5112678;28;20142;-73
2021/09/10 11:30:29;;;;;;;10.10;3.60;;;;;;;24.07;35.38;100413.50;5113533;28;20474;-73
2021/09/10 11:32:59;;;;;;;9.35;3.45;;;;;;;24.18;34.34;100404.94;5113284;28;20056;-72
2021/09/10 11:35:32;;;;;;;;;;;;;;;24.06;34.78;100404.47;5113852;28;20055;-72